Latest Weather Observations for Yunta

IDS60801

Issued at 11:31 am CDT Thursday 21 November 2019 (issued every 10 minutes, with the page automatically refreshed every 10 minutes)

About weather observations | Map of weather stations | Latest weather observations for SA | Other Formats
Station Details ID: 020062 Name: YUNTA AIRSTRIP Lat: -32.57 Lon: 139.56 Height: 300.0 m
Data from the previous 72 hours. | See also: Recent months at Yunta
Date/Time
CDT
Temp
°C
App
Temp
°C
Dew
Point
°C
Rel
Hum
%
Delta-T
°C
Wind Press
QNH
hPa
Press
MSL
hPa
Rain since
9am
mm
Dir  Spd
km/h
Gust
km/h
Spd
kts
Gust
kts
21/11:30am 29.1 22.6 8.2 27 11.6 WSW 32 39 17 21 1007.9 1006.8 0.0
21/11:00am 28.1 21.9 7.9 28 11.1 WSW 30 41 16 22 1008.3 1007.2 0.0
21/10:30am 26.9 19.9 8.4 31 10.2 WSW 35 43 19 23 1007.8 1006.7 0.0
21/10:00am 26.3 20.1 7.8 31 10.0 WSW 30 39 16 21 1007.7 1006.6 0.0
21/09:30am 27.3 21.7 7.2 28 10.9 W 26 35 14 19 1007.2 1006.1 0.0
21/09:00am 30.4 23.3 -1.1 13 15.1 W 26 37 14 20 1006.7 1005.6 0.0
21/08:30am 32.7 26.0 -7.6 7 17.6 NNW 20 33 11 18 1006.1 1005.0 0.0
21/08:00am 30.4 22.9 -4.6 10 15.7 NNW 26 35 14 19 1005.9 1004.8 0.0
21/07:30am 28.3 21.9 -4.9 11 14.6 NNW 20 28 11 15 1004.7 1003.6 0.0
21/07:00am 27.1 20.6 -5.9 11 14.1 N 20 26 11 14 1004.3 1003.2 0.0
21/06:30am 28.1 20.2 -5.1 11 14.5 NNW 28 33 15 18 1004.1 1003.0 0.0
21/06:00am 30.1 22.6 -4.8 10 15.6 N 26 35 14 19 1002.9 1001.8 0.0
21/05:30am 29.8 21.9 -5.1 10 15.5 N 28 43 15 23 1002.5 1001.3 0.0
21/05:00am 30.8 21.8 -5.7 9 16.1 N 33 46 18 25 1001.9 1000.7 0.0
21/04:30am 31.1 22.7 -5.5 9 16.3 N 30 39 16 21 1002.3 1001.1 0.0
21/04:00am 31.4 23.5 -5.2 9 16.4 N 28 39 15 21 1002.3 1001.1 0.0
21/03:30am 31.1 24.3 -5.5 9 16.3 N 22 33 12 18 1002.8 1001.6 0.0
21/03:00am 30.6 24.4 -4.4 10 15.9 N 19 24 10 13 1003.2 1002.1 0.0
21/02:30am 30.4 24.2 -4.6 10 15.8 N 19 28 10 15 1003.6 1002.5 0.0
21/02:00am 28.9 23.4 -5.7 10 15.0 N 15 19 8 10 1004.1 1003.0 0.0
21/01:30am 30.3 24.1 -4.7 10 15.7 N 19 26 10 14 1004.3 1003.2 0.0
21/01:00am 30.8 24.5 -5.7 9 16.1 NNW 19 22 10 12 1004.8 1003.7 0.0
21/12:30am 34.3 26.8 -4.6 8 18.0 N 26 43 14 23 1005.1 1003.9 0.0
21/12:00am 34.7 27.6 -4.4 8 18.2 N 24 35 13 19 1005.4 1004.2 0.0
 
Date/Time
CDT
Temp
°C
App
Temp
°C
Dew
Point
°C
Rel
Hum
%
Delta-T
°C
Wind Press
QNH
hPa
Press
MSL
hPa
Rain since
9am
mm
Dir  Spd
km/h
Gust
km/h
Spd
kts
Gust
kts
20/11:30pm 35.5 26.8 -5.5 7 18.9 NNE 32 44 17 24 1005.5 1004.3 0.0
20/11:06pm 35.7 27.0 -5.4 7 18.9 NNE 32 50 17 27 1005.6 1004.4 0.0
20/11:00pm 35.9 27.2 -5.2 7 19.0 NNE 32 48 17 26 1005.7 1004.5 0.0
20/10:55pm 35.9 27.6 -5.2 7 19.0 NNE 30 48 16 26 1005.7 1004.5 0.0
20/10:30pm 35.9 27.6 -5.2 7 19.1 NNE 30 44 16 24 1005.8 1004.6 0.0
20/10:00pm 36.1 27.4 -5.1 7 19.1 NNE 32 46 17 25 1005.9 1004.8 0.0
20/09:30pm 36.5 27.6 -4.8 7 19.4 NNE 33 48 18 26 1005.9 1004.8 0.0
20/09:22pm 36.6 28.3 -4.7 7 19.4 NNE 30 48 16 26 1005.9 1004.8 0.0
20/09:00pm 36.7 28.4 -4.7 7 19.5 NNE 30 41 16 22 1005.8 1004.6 0.0
20/08:30pm 36.8 28.5 -4.6 7 19.5 NNE 30 41 16 22 1005.7 1004.5 0.0
20/08:00pm 37.6 29.4 -4.0 7 19.9 NNE 30 43 16 23 1005.7 1004.5 0.0
20/07:30pm 38.2 29.5 -3.6 7 20.2 N 33 46 18 25 1005.6 1004.4 0.0
20/07:00pm 38.9 30.0 -5.1 6 20.8 N 33 52 18 28 1005.4 1004.2 0.0
20/06:30pm 39.5 29.9 -4.7 6 21.2 N 37 56 20 30 1005.2 1004.0 0.0
20/06:22pm 39.5 30.3 -4.7 6 21.2 N 35 56 19 30 1005.2 1004.0 0.0
20/06:00pm 39.9 29.9 -4.4 6 21.4 N 39 50 21 27 1005.1 1003.9 0.0
20/05:42pm 40.3 31.1 -4.1 6 21.6 NNE 35 56 19 30 1005.2 1004.0 0.0
20/05:30pm 40.5 31.0 -4.0 6 21.7 N 37 56 20 30 1005.3 1004.1 0.0
20/05:03pm 40.5 31.0 -4.0 6 21.7 N 37 56 20 30 1005.5 1004.3 0.0
20/05:00pm 40.6 31.1 -3.9 6 21.7 N 37 52 20 28 1005.5 1004.3 0.0
20/04:30pm 40.8 31.7 -3.8 6 21.9 N 35 54 19 29 1005.8 1004.6 0.0
20/04:14pm 41.3 32.2 -3.4 6 22.1 N 35 54 19 29 1005.9 1004.8 0.0
20/04:00pm 41.0 31.5 -3.6 6 21.9 N 37 54 20 29 1006.0 1004.9 0.0
20/03:38pm 41.3 31.8 -3.4 6 22.1 N 37 57 20 31 1006.3 1005.2 0.0
20/03:30pm 41.3 32.6 -3.4 6 22.1 N 33 48 18 26 1006.3 1005.2 0.0
20/03:00pm 41.2 32.5 -3.5 6 22.1 N 33 56 18 30 1007.0 1005.9 0.0
20/02:47pm 41.1 32.4 -3.6 6 22.0 N 33 54 18 29 1007.2 1006.1 0.0
20/02:30pm 41.2 31.7 -3.5 6 22.1 N 37 52 20 28 1007.6 1006.5 0.0
20/02:00pm 40.9 31.8 -3.7 6 21.9 N 35 52 19 28 1008.0 1006.9 0.0
20/01:32pm 41.0 31.5 -3.6 6 21.9 N 37 57 20 31 1008.3 1007.2 0.0
20/01:30pm 40.0 30.1 -4.3 6 21.4 N 39 56 21 30 1008.5 1007.3 0.0
20/01:00pm 39.8 29.8 -4.5 6 21.3 N 39 54 21 29 1009.0 1007.9 0.0
20/12:30pm 40.0 30.1 -4.3 6 21.4 N 39 52 21 28 1009.4 1008.3 0.0
20/12:00pm 38.8 28.6 -3.2 7 20.5 N 41 52 22 28 1009.8 1008.7 0.0
20/11:30am 38.5 29.8 -3.4 7 20.4 N 33 50 18 27 1010.1 1009.0 0.0
20/11:00am 37.6 29.0 -4.0 7 19.9 N 32 43 17 23 1010.3 1009.2 0.0
20/10:30am 36.2 28.1 -3.3 8 18.9 N 30 41 16 22 1010.5 1009.4 0.0
20/10:00am 34.9 27.8 -4.2 8 18.3 N 24 32 13 17 1010.8 1009.7 0.0
20/09:30am 34.3 26.0 -4.6 8 18.0 N 30 37 16 20 1011.0 1009.9 0.0
20/09:00am 33.4 24.9 -3.7 9 17.3 N 32 41 17 22 1011.2 1010.1 0.0
20/08:30am 33.0 25.2 -4.0 9 17.1 N 28 37 15 20 1011.2 1010.1 0.0
20/08:00am 30.3 27.5 -3.4 11 15.4 ENE 2 7 1 4 1011.1 1010.0 0.0
20/07:30am 28.4 24.8 -3.7 12 14.4 NE 6 9 3 5 1011.0 1009.9 0.0
20/07:00am 24.1 20.4 -5.0 14 12.3 NE 6 7 3 4 1010.9 1009.8 0.0
20/06:45am 22.4 18.8 -3.8 17 11.1 NE 6 9 3 5 1010.9 1009.8 0.0
20/06:30am 17.3 14.5 -7.2 18 9.3 CALM 0 4 0 2 1010.9 1009.8 0.0
20/06:00am 16.6 13.7 -8.5 17 9.2 CALM 0 4 0 2 1010.8 1009.7 0.0
20/05:30am 17.2 13.5 -8.0 17 9.3 NE 4 4 2 2 1010.8 1009.7 0.0
20/05:00am 17.9 14.6 -8.2 16 9.7 NE 2 6 1 3 1010.8 1009.7 0.0
20/04:30am 20.3 16.8 -6.3 16 10.6 NE 4 6 2 3 1010.6 1009.5 0.0
20/04:00am 22.1 19.1 -4.9 16 11.2 NE 2 7 1 4 1010.6 1009.5 0.0
20/03:30am 19.7 16.4 -8.5 14 10.6 NE 2 7 1 4 1010.8 1009.7 0.0
20/03:00am 20.3 16.1 -8.0 14 10.9 NNE 7 11 4 6 1011.1 1010.0 0.0
20/02:30am 18.4 15.4 -9.5 14 10.2 CALM 0 0 0 0 1011.5 1010.4 0.0
20/02:00am 19.6 14.2 -8.6 14 10.6 N 13 15 7 8 1012.3 1011.2 0.0
20/01:30am 19.7 15.1 -8.5 14 10.6 SW 9 9 5 5 1012.3 1011.2 0.0
20/01:00am 20.6 17.6 -8.7 13 11.1 CALM 0 0 0 0 1012.5 1011.4 0.0
20/12:30am 21.2 17.9 -8.3 13 11.4 ESE 2 13 1 7 1012.6 1011.5 0.0
20/12:00am 21.4 18.4 -9.1 12 11.6 CALM 0 0 0 0 1012.8 1011.7 0.0
 
Date/Time
CDT
Temp
°C
App
Temp
°C
Dew
Point
°C
Rel
Hum
%
Delta-T
°C
Wind Press
QNH
hPa
Press
MSL
hPa
Rain since
9am
mm
Dir  Spd
km/h
Gust
km/h
Spd
kts
Gust
kts
19/11:30pm 23.3 20.4 -7.7 12 12.3 CALM 0 0 0 0 1012.9 1011.8 0.0
19/11:00pm 24.4 21.5 -7.9 11 12.9 CALM 0 0 0 0 1013.0 1011.9 0.0
19/10:30pm 25.2 22.4 -7.3 11 13.3 CALM 0 2 0 1 1013.0 1011.9 0.0
19/10:00pm 26.7 23.9 -7.4 10 14.1 CALM 0 0 0 0 1012.9 1011.8 0.0
19/09:30pm 28.7 25.1 -7.3 9 15.2 S 4 6 2 3 1012.7 1011.6 0.0
19/09:00pm 31.4 27.4 -5.2 9 16.4 S 7 9 4 5 1012.4 1011.3 0.0
19/08:30pm 32.1 27.8 -4.7 9 16.7 S 9 9 5 5 1012.2 1011.1 0.0
19/08:00pm 33.9 28.8 -4.9 8 17.8 SSW 13 15 7 8 1012.0 1010.9 0.0
19/07:30pm 35.5 29.8 -3.8 8 18.6 SSW 17 24 9 13 1011.7 1010.7 0.0
19/07:00pm 36.3 29.5 -5.0 7 19.2 SW 22 32 12 17 1011.4 1010.3 0.0
19/06:30pm 37.7 31.0 -3.9 7 19.9 SSW 22 33 12 18 1011.1 1010.0 0.0
19/06:00pm 37.9 31.8 -3.8 7 20.0 SW 19 30 10 16 1010.8 1009.7 0.0
19/05:30pm 38.3 32.1 -3.5 7 20.2 SW 20 32 11 17 1010.6 1009.5 0.0
19/05:00pm 38.4 32.2 -3.4 7 20.3 WSW 20 32 11 17 1010.5 1009.4 0.0
19/04:30pm 38.6 31.6 -3.3 7 20.4 SW 24 37 13 20 1010.4 1009.3 0.0
19/04:00pm 39.2 32.0 -4.9 6 21.0 W 24 44 13 24 1010.3 1009.2 0.0
19/03:56pm 39.5 33.1 -4.7 6 21.2 W 20 44 11 24 1010.3 1009.2 0.0
19/03:30pm 39.2 33.8 -4.9 6 21.0 WSW 15 24 8 13 1010.5 1009.4 0.0
19/03:00pm 38.7 32.8 -5.3 6 20.8 W 17 32 9 17 1010.9 1009.8 0.0
19/02:30pm 39.0 31.7 -3.0 7 20.6 WSW 26 39 14 21 1011.2 1010.1 0.0
19/02:00pm 38.7 32.7 -3.2 7 20.4 WSW 19 28 10 15 1011.6 1010.6 0.0
19/01:30pm 38.7 32.1 -3.2 7 20.4 WSW 22 35 12 19 1011.8 1010.8 0.0
19/01:00pm 38.0 30.0 -5.8 6 20.4 W 28 43 15 23 1012.2 1011.1 0.0
19/12:30pm 37.6 32.4 -6.0 6 20.2 W 13 22 7 12 1012.4 1011.3 0.0
19/12:00pm 36.4 29.2 -4.9 7 19.3 WSW 24 35 13 19 1012.8 1011.7 0.0
19/11:30am 35.4 29.5 -5.6 7 18.8 W 17 28 9 15 1012.9 1011.8 0.0
19/11:00am 35.0 27.7 -5.9 7 18.6 W 24 33 13 18 1013.2 1012.1 0.0
19/10:30am 34.1 27.7 -6.5 7 18.2 W 19 30 10 16 1013.4 1012.3 0.0
19/10:00am 32.7 26.2 -5.8 8 17.2 WNW 20 28 11 15 1013.4 1012.3 0.0
19/09:30am 32.3 26.0 -6.1 8 17.0 WNW 19 30 10 16 1013.6 1012.5 0.0
19/09:00am 30.9 25.6 -7.1 8 16.4 W 13 22 7 12 1013.7 1012.6 0.0
19/08:30am 28.4 24.5 -6.1 10 14.8 N 6 7 3 4 1013.8 1012.7 0.0
19/08:00am 26.3 21.8 -6.5 11 13.7 N 9 11 5 6 1013.7 1012.6 0.0
19/07:30am 24.8 20.0 -6.5 12 12.9 NNW 11 17 6 9 1013.6 1012.5 0.0
19/07:00am 23.3 18.1 -6.6 13 12.1 NNW 13 17 7 9 1013.2 1012.1 0.0
19/06:30am 21.3 16.1 -6.3 15 11.1 NNW 13 15 7 8 1012.9 1011.8 0.0
19/06:00am 20.6 15.0 -6.9 15 10.8 NNW 15 17 8 9 1012.7 1011.6 0.0
19/05:30am 20.5 15.2 -7.0 15 10.8 NNW 13 15 7 8 1012.5 1011.4 0.0
19/05:00am 21.3 17.1 -7.2 14 11.2 NNW 7 11 4 6 1012.6 1011.5 0.0
19/04:30am 21.1 16.5 -7.4 14 11.2 NNW 9 13 5 7 1012.5 1011.4 0.0
19/04:00am 21.7 16.4 -6.9 14 11.4 NNW 13 17 7 9 1012.3 1011.2 0.0
19/03:30am 21.8 16.5 -6.8 14 11.4 NNW 13 15 7 8 1012.4 1011.3 0.0
19/03:00am 22.6 16.3 -6.2 14 11.7 N 19 20 10 11 1012.4 1011.3 0.0
19/02:30am 22.6 15.6 -7.2 13 11.9 N 22 26 12 14 1012.6 1011.5 0.0
19/02:00am 22.9 15.9 -6.9 13 12.0 N 22 24 12 13 1012.8 1011.7 0.0
19/01:30am 22.4 16.0 -7.3 13 11.8 N 19 22 10 12 1013.2 1012.1 0.0
19/01:00am 23.5 16.9 -6.5 13 12.2 N 20 24 11 13 1013.6 1012.5 0.0
19/12:30am 24.4 17.8 -6.8 12 12.8 N 20 24 11 13 1013.8 1012.7 0.0
19/12:00am 24.5 17.9 -6.7 12 12.8 N 20 22 11 12 1014.0 1012.9 0.0
 
Date/Time
CDT
Temp
°C
App
Temp
°C
Dew
Point
°C
Rel
Hum
%
Delta-T
°C
Wind Press
QNH
hPa
Press
MSL
hPa
Rain since
9am
mm
Dir  Spd
km/h
Gust
km/h
Spd
kts
Gust
kts
18/11:30pm 24.7 18.3 -6.6 12 12.9 N 19 22 10 12 1014.1 1013.0 0.0
18/11:00pm 25.4 18.8 -7.2 11 13.4 N 20 22 11 12 1014.2 1013.1 0.0
18/10:30pm 25.1 20.2 -7.4 11 13.2 N 11 13 6 7 1014.1 1013.0 0.0
18/10:00pm 27.0 21.4 -5.9 11 14.0 WNW 15 17 8 9 1014.1 1013.0 0.0
18/09:30pm 27.5 21.9 -6.8 10 14.4 WNW 15 15 8 8 1014.0 1012.9 0.0
18/09:00pm 28.0 22.8 -6.4 10 14.7 WNW 13 15 7 8 1013.9 1012.8 0.0
18/08:30pm 29.3 24.6 -5.4 10 15.2 WNW 11 13 6 7 1013.9 1012.8 0.0
18/08:00pm 30.9 26.1 -5.6 9 16.2 WNW 11 17 6 9 1013.9 1012.8 0.0
18/07:30pm 32.8 27.0 -4.2 9 17.0 W 17 24 9 13 1013.6 1012.5 0.0
18/07:00pm 33.7 28.6 -5.1 8 17.7 W 13 19 7 10 1013.4 1012.3 0.0
18/06:30pm 34.0 27.6 -4.9 8 17.9 W 20 30 11 16 1013.2 1012.1 0.0
18/06:00pm 34.3 27.8 -6.4 7 18.3 WNW 20 35 11 19 1013.1 1012.0 0.0
18/05:30pm 34.5 28.0 -6.3 7 18.4 W 20 32 11 17 1013.3 1012.2 0.0
18/05:00pm 34.5 28.9 -6.3 7 18.4 WNW 15 28 8 15 1013.5 1012.4 0.0
18/04:30pm 34.8 31.5 -4.3 8 18.2 WNW 4 13 2 7 1013.7 1012.6 0.0
18/04:00pm 34.1 29.4 -4.8 8 17.9 WSW 11 19 6 10 1014.1 1013.0 0.0
18/03:30pm 33.2 28.8 -5.5 8 17.5 WNW 9 17 5 9 1014.8 1013.8 0.0
18/03:00pm 32.6 27.8 -5.9 8 17.2 W 11 20 6 11 1015.3 1014.3 0.0
18/02:30pm 32.1 26.9 -6.3 8 16.9 WNW 13 32 7 17 1015.9 1014.8 0.0
18/02:00pm 31.0 25.1 -5.5 9 16.2 WNW 17 26 9 14 1016.3 1015.2 0.0
18/01:30pm 30.9 25.4 -5.6 9 16.1 NNW 15 28 8 15 1016.8 1015.7 0.0
18/01:00pm 30.2 24.8 -4.8 10 15.6 N 15 28 8 15 1017.0 1015.9 0.0
18/12:30pm 29.5 23.8 -4.0 11 15.1 NNW 17 28 9 15 1017.2 1016.1 0.0
18/12:00pm 29.1 23.5 -3.2 12 14.7 N 17 28 9 15 1017.8 1016.8 0.0

Other formats

Comma delimited format used in spreadsheet applications
http://www.bom.gov.au/fwo/IDS60801/IDS60801.94684.axf

JavaScript Object Notation format (JSON) in row-major order
http://www.bom.gov.au/fwo/IDS60801/IDS60801.94684.json

Data quality

Most of these data are generated automatically and are frequently updated. Quality checks on data are not normally performed. It is possible for incorrect values to appear. Refer to information at About Latest Weather Observations and please check the disclaimer before using these data.